sensor_id;sensor_type;location;lat;lon;timestamp;temperature;humidity
35607;DHT22;21729;58.392;15.656;2023-01-24T00:01:18;-1.20;99.90
35607;DHT22;21729;58.392;15.656;2023-01-24T00:03:45;-1.40;99.90
35607;DHT22;21729;58.392;15.656;2023-01-24T00:06:12;-1.40;99.90
35607;DHT22;21729;58.392;15.656;2023-01-24T00:08:39;-1.40;99.90
35607;DHT22;21729;58.392;15.656;2023-01-24T00:11:10;-1.20;99.90
35607;DHT22;21729;58.392;15.656;2023-01-24T00:13:39;-1.40;99.90
35607;DHT22;21729;58.392;15.656;2023-01-24T00:16:09;-1.30;99.90
35607;DHT22;21729;58.392;15.656;2023-01-24T00:18:36;-1.30;99.90
35607;DHT22;21729;58.392;15.656;2023-01-24T00:21:05;-1.30;99.90
35607;DHT22;21729;58.392;15.656;2023-01-24T00:23:35;-1.30;99.90
35607;DHT22;21729;58.392;15.656;2023-01-24T00:26:02;-1.00;99.90
35607;DHT22;21729;58.392;15.656;2023-01-24T00:28:29;-1.30;99.90
35607;DHT22;21729;58.392;15.656;2023-01-24T00:30:58;-1.30;99.90
35607;DHT22;21729;58.392;15.656;2023-01-24T00:33:25;-1.30;99.90
35607;DHT22;21729;58.392;15.656;2023-01-24T00:35:52;-1.30;99.90
35607;DHT22;21729;58.392;15.656;2023-01-24T00:38:20;-1.20;99.90
35607;DHT22;21729;58.392;15.656;2023-01-24T00:40:47;-1.20;99.90
35607;DHT22;21729;58.392;15.656;2023-01-24T00:43:15;-1.20;99.90
35607;DHT22;21729;58.392;15.656;2023-01-24T00:45:44;-1.20;99.90
35607;DHT22;21729;58.392;15.656;2023-01-24T00:48:13;-1.20;99.90
35607;DHT22;21729;58.392;15.656;2023-01-24T00:50:41;-1.20;99.90
35607;DHT22;21729;58.392;15.656;2023-01-24T00:53:08;-1.20;99.90
35607;DHT22;21729;58.392;15.656;2023-01-24T00:55:41;-1.20;99.90
35607;DHT22;21729;58.392;15.656;2023-01-24T00:58:08;-1.20;99.90
35607;DHT22;21729;58.392;15.656;2023-01-24T01:00:36;-1.20;99.90
35607;DHT22;21729;58.392;15.656;2023-01-24T01:03:06;-1.20;99.90
35607;DHT22;21729;58.392;15.656;2023-01-24T01:05:35;-1.10;99.90
35607;DHT22;21729;58.392;15.656;2023-01-24T01:08:02;-1.10;99.90
35607;DHT22;21729;58.392;15.656;2023-01-24T01:10:29;-1.20;99.90
35607;DHT22;21729;58.392;15.656;2023-01-24T01:12:57;-1.20;99.90
35607;DHT22;21729;58.392;15.656;2023-01-24T01:15:24;-1.20;99.90
35607;DHT22;21729;58.392;15.656;2023-01-24T01:17:51;-1.20;99.90
35607;DHT22;21729;58.392;15.656;2023-01-24T01:20:18;-1.20;99.90
35607;DHT22;21729;58.392;15.656;2023-01-24T01:22:47;-1.20;99.90
35607;DHT22;21729;58.392;15.656;2023-01-24T01:25:14;-1.20;99.90
35607;DHT22;21729;58.392;15.656;2023-01-24T01:27:41;-1.20;99.90
35607;DHT22;21729;58.392;15.656;2023-01-24T01:30:09;-1.20;99.90
35607;DHT22;21729;58.392;15.656;2023-01-24T01:32:37;-1.20;99.90
35607;DHT22;21729;58.392;15.656;2023-01-24T01:35:04;-1.20;99.90
35607;DHT22;21729;58.392;15.656;2023-01-24T01:37:32;-1.20;99.90
35607;DHT22;21729;58.392;15.656;2023-01-24T01:40:00;-1.20;99.90
35607;DHT22;21729;58.392;15.656;2023-01-24T01:42:40;-1.20;99.90
35607;DHT22;21729;58.392;15.656;2023-01-24T01:45:33;-1.20;99.90
35607;DHT22;21729;58.392;15.656;2023-01-24T01:48:03;-1.20;99.90
35607;DHT22;21729;58.392;15.656;2023-01-24T01:50:34;-1.20;99.90
35607;DHT22;21729;58.392;15.656;2023-01-24T01:53:03;-1.20;99.90
35607;DHT22;21729;58.392;15.656;2023-01-24T01:55:36;-1.20;99.90
35607;DHT22;21729;58.392;15.656;2023-01-24T01:58:06;-1.20;99.90
35607;DHT22;21729;58.392;15.656;2023-01-24T02:00:33;-1.30;99.90
35607;DHT22;21729;58.392;15.656;2023-01-24T02:03:03;-1.20;99.90
35607;DHT22;21729;58.392;15.656;2023-01-24T02:05:50;-1.20;99.90
35607;DHT22;21729;58.392;15.656;2023-01-24T02:08:21;-1.20;99.90
35607;DHT22;21729;58.392;15.656;2023-01-24T02:10:50;-1.30;99.90
35607;DHT22;21729;58.392;15.656;2023-01-24T02:13:34;-1.30;99.90
35607;DHT22;21729;58.392;15.656;2023-01-24T02:16:06;-1.40;99.90
35607;DHT22;21729;58.392;15.656;2023-01-24T02:18:33;-1.30;99.90
35607;DHT22;21729;58.392;15.656;2023-01-24T02:21:01;-1.30;99.90
35607;DHT22;21729;58.392;15.656;2023-01-24T02:23:39;-1.40;99.90
35607;DHT22;21729;58.392;15.656;2023-01-24T02:26:12;-1.40;99.90
35607;DHT22;21729;58.392;15.656;2023-01-24T02:28:42;-1.30;99.90
35607;DHT22;21729;58.392;15.656;2023-01-24T02:31:10;-1.40;99.90
35607;DHT22;21729;58.392;15.656;2023-01-24T02:33:37;-1.10;99.90
35607;DHT22;21729;58.392;15.656;2023-01-24T02:36:19;-1.40;99.90
35607;DHT22;21729;58.392;15.656;2023-01-24T02:38:52;-1.40;99.90
35607;DHT22;21729;58.392;15.656;2023-01-24T02:41:24;-1.10;99.90
35607;DHT22;21729;58.392;15.656;2023-01-24T02:43:53;-1.30;99.90
35607;DHT22;21729;58.392;15.656;2023-01-24T02:46:22;-1.30;99.90
35607;DHT22;21729;58.392;15.656;2023-01-24T02:48:50;-1.30;99.90
35607;DHT22;21729;58.392;15.656;2023-01-24T02:51:17;-1.00;99.90
35607;DHT22;21729;58.392;15.656;2023-01-24T02:54:02;-1.30;99.90
35607;DHT22;21729;58.392;15.656;2023-01-24T02:56:30;-1.30;99.90
35607;DHT22;21729;58.392;15.656;2023-01-24T02:59:15;-1.30;99.90
35607;DHT22;21729;58.392;15.656;2023-01-24T03:01:42;-1.20;99.90
35607;DHT22;21729;58.392;15.656;2023-01-24T03:04:09;-1.20;99.90
35607;DHT22;21729;58.392;15.656;2023-01-24T03:06:37;-1.10;99.90
35607;DHT22;21729;58.392;15.656;2023-01-24T03:09:04;-1.30;99.90
35607;DHT22;21729;58.392;15.656;2023-01-24T03:11:45;-1.20;99.90
35607;DHT22;21729;58.392;15.656;2023-01-24T03:14:12;-1.30;99.90
35607;DHT22;21729;58.392;15.656;2023-01-24T03:16:57;-1.20;99.90
35607;DHT22;21729;58.392;15.656;2023-01-24T03:19:42;-1.20;99.90
35607;DHT22;21729;58.392;15.656;2023-01-24T03:22:26;-1.20;99.90
35607;DHT22;21729;58.392;15.656;2023-01-24T03:25:11;-1.20;99.90
35607;DHT22;21729;58.392;15.656;2023-01-24T03:28:02;-1.10;99.90
35607;DHT22;21729;58.392;15.656;2023-01-24T03:30:46;-1.10;99.90
35607;DHT22;21729;58.392;15.656;2023-01-24T03:33:31;-1.00;99.90
35607;DHT22;21729;58.392;15.656;2023-01-24T03:36:15;-1.00;99.90
35607;DHT22;21729;58.392;15.656;2023-01-24T03:38:45;-0.90;99.90
35607;DHT22;21729;58.392;15.656;2023-01-24T03:41:29;-0.90;99.90
35607;DHT22;21729;58.392;15.656;2023-01-24T03:43:57;-0.80;99.90
35607;DHT22;21729;58.392;15.656;2023-01-24T03:46:25;-0.80;99.90
35607;DHT22;21729;58.392;15.656;2023-01-24T03:48:52;-0.80;99.90
35607;DHT22;21729;58.392;15.656;2023-01-24T03:51:19;-0.70;99.90
35607;DHT22;21729;58.392;15.656;2023-01-24T03:54:04;-0.60;99.90
35607;DHT22;21729;58.392;15.656;2023-01-24T03:56:31;-0.60;99.90
35607;DHT22;21729;58.392;15.656;2023-01-24T03:58:59;-0.60;99.90
35607;DHT22;21729;58.392;15.656;2023-01-24T04:01:26;-0.60;99.90
35607;DHT22;21729;58.392;15.656;2023-01-24T04:03:54;-0.50;99.90
35607;DHT22;21729;58.392;15.656;2023-01-24T04:06:22;-0.50;99.90
35607;DHT22;21729;58.392;15.656;2023-01-24T04:08:49;-0.60;99.90
35607;DHT22;21729;58.392;15.656;2023-01-24T04:11:17;-0.60;99.90
35607;DHT22;21729;58.392;15.656;2023-01-24T04:13:44;-0.40;99.90
35607;DHT22;21729;58.392;15.656;2023-01-24T04:16:12;-0.50;99.90
35607;DHT22;21729;58.392;15.656;2023-01-24T04:18:40;-0.40;99.90
35607;DHT22;21729;58.392;15.656;2023-01-24T04:21:09;-0.40;99.90
35607;DHT22;21729;58.392;15.656;2023-01-24T04:23:37;-0.40;99.90
35607;DHT22;21729;58.392;15.656;2023-01-24T04:26:04;-0.40;99.90
35607;DHT22;21729;58.392;15.656;2023-01-24T04:28:31;-0.40;99.90
35607;DHT22;21729;58.392;15.656;2023-01-24T04:30:59;-0.50;99.90
35607;DHT22;21729;58.392;15.656;2023-01-24T04:33:28;-0.60;99.90
35607;DHT22;21729;58.392;15.656;2023-01-24T04:35:59;-0.70;99.90
35607;DHT22;21729;58.392;15.656;2023-01-24T04:38:26;-0.50;99.90
35607;DHT22;21729;58.392;15.656;2023-01-24T04:40:57;-0.70;99.90
35607;DHT22;21729;58.392;15.656;2023-01-24T04:43:25;-0.70;99.90
35607;DHT22;21729;58.392;15.656;2023-01-24T04:45:55;-0.70;99.90
35607;DHT22;21729;58.392;15.656;2023-01-24T04:48:22;-0.70;99.90
35607;DHT22;21729;58.392;15.656;2023-01-24T04:50:51;-0.60;99.90
35607;DHT22;21729;58.392;15.656;2023-01-24T04:53:18;-0.60;99.90
35607;DHT22;21729;58.392;15.656;2023-01-24T04:55:45;-0.60;99.90
35607;DHT22;21729;58.392;15.656;2023-01-24T04:58:12;-0.60;99.90
35607;DHT22;21729;58.392;15.656;2023-01-24T05:00:39;-0.50;99.90
35607;DHT22;21729;58.392;15.656;2023-01-24T05:03:06;-0.40;99.90
35607;DHT22;21729;58.392;15.656;2023-01-24T05:05:33;-0.30;99.90
35607;DHT22;21729;58.392;15.656;2023-01-24T05:08:02;-0.20;99.90
35607;DHT22;21729;58.392;15.656;2023-01-24T05:10:29;-0.20;99.90
35607;DHT22;21729;58.392;15.656;2023-01-24T05:12:56;-0.10;99.90
35607;DHT22;21729;58.392;15.656;2023-01-24T05:15:23;-0.10;99.90
35607;DHT22;21729;58.392;15.656;2023-01-24T05:17:52;-0.10;99.90
35607;DHT22;21729;58.392;15.656;2023-01-24T05:20:19;0.00;99.90
35607;DHT22;21729;58.392;15.656;2023-01-24T05:22:46;0.00;99.90
35607;DHT22;21729;58.392;15.656;2023-01-24T05:25:16;0.00;99.90
35607;DHT22;21729;58.392;15.656;2023-01-24T05:27:44;0.10;99.90
35607;DHT22;21729;58.392;15.656;2023-01-24T05:30:11;0.20;99.90
35607;DHT22;21729;58.392;15.656;2023-01-24T05:32:39;0.10;99.90
35607;DHT22;21729;58.392;15.656;2023-01-24T05:35:07;0.20;99.90
35607;DHT22;21729;58.392;15.656;2023-01-24T05:37:36;0.20;99.90
35607;DHT22;21729;58.392;15.656;2023-01-24T05:40:04;0.20;99.90
35607;DHT22;21729;58.392;15.656;2023-01-24T05:42:33;0.30;99.90
35607;DHT22;21729;58.392;15.656;2023-01-24T05:45:00;0.30;99.90
35607;DHT22;21729;58.392;15.656;2023-01-24T05:47:27;0.20;99.90
35607;DHT22;21729;58.392;15.656;2023-01-24T05:49:54;0.20;99.90
35607;DHT22;21729;58.392;15.656;2023-01-24T05:52:21;0.30;99.90
35607;DHT22;21729;58.392;15.656;2023-01-24T05:54:48;0.30;99.90
35607;DHT22;21729;58.392;15.656;2023-01-24T05:57:16;0.30;99.90
35607;DHT22;21729;58.392;15.656;2023-01-24T05:59:45;0.40;99.90
35607;DHT22;21729;58.392;15.656;2023-01-24T06:02:12;0.40;99.90
35607;DHT22;21729;58.392;15.656;2023-01-24T06:04:39;0.40;99.90
35607;DHT22;21729;58.392;15.656;2023-01-24T06:07:06;0.40;99.90
35607;DHT22;21729;58.392;15.656;2023-01-24T06:09:33;0.70;99.90
35607;DHT22;21729;58.392;15.656;2023-01-24T06:12:00;0.50;99.90
35607;DHT22;21729;58.392;15.656;2023-01-24T06:14:27;0.60;99.90
35607;DHT22;21729;58.392;15.656;2023-01-24T06:16:55;0.60;99.90
35607;DHT22;21729;58.392;15.656;2023-01-24T06:19:23;0.50;99.90
35607;DHT22;21729;58.392;15.656;2023-01-24T06:21:58;0.60;99.90
35607;DHT22;21729;58.392;15.656;2023-01-24T06:24:28;0.60;99.90
35607;DHT22;21729;58.392;15.656;2023-01-24T06:26:57;0.60;99.90
35607;DHT22;21729;58.392;15.656;2023-01-24T06:29:25;0.60;99.90
35607;DHT22;21729;58.392;15.656;2023-01-24T06:32:03;0.60;99.90
35607;DHT22;21729;58.392;15.656;2023-01-24T06:34:58;0.60;99.90
35607;DHT22;21729;58.392;15.656;2023-01-24T06:37:33;0.70;99.90
35607;DHT22;21729;58.392;15.656;2023-01-24T06:40:07;0.60;99.90
35607;DHT22;21729;58.392;15.656;2023-01-24T06:42:36;0.60;99.90
35607;DHT22;21729;58.392;15.656;2023-01-24T06:45:03;0.70;99.90
35607;DHT22;21729;58.392;15.656;2023-01-24T06:47:32;0.70;99.90
35607;DHT22;21729;58.392;15.656;2023-01-24T06:49:59;0.70;99.90
35607;DHT22;21729;58.392;15.656;2023-01-24T06:52:26;0.70;99.90
35607;DHT22;21729;58.392;15.656;2023-01-24T06:54:54;0.70;99.90
35607;DHT22;21729;58.392;15.656;2023-01-24T06:57:21;0.80;99.90
35607;DHT22;21729;58.392;15.656;2023-01-24T06:59:48;0.80;99.90
35607;DHT22;21729;58.392;15.656;2023-01-24T07:02:15;0.80;99.90
35607;DHT22;21729;58.392;15.656;2023-01-24T07:04:43;0.80;99.90
35607;DHT22;21729;58.392;15.656;2023-01-24T07:07:10;0.80;99.90
35607;DHT22;21729;58.392;15.656;2023-01-24T07:09:38;0.80;99.90
35607;DHT22;21729;58.392;15.656;2023-01-24T07:12:05;0.80;99.90
35607;DHT22;21729;58.392;15.656;2023-01-24T07:14:32;0.90;99.90
35607;DHT22;21729;58.392;15.656;2023-01-24T07:16:59;0.90;99.90
35607;DHT22;21729;58.392;15.656;2023-01-24T07:19:27;1.00;99.90
35607;DHT22;21729;58.392;15.656;2023-01-24T07:21:56;1.10;99.90
35607;DHT22;21729;58.392;15.656;2023-01-24T07:24:25;1.10;99.90
35607;DHT22;21729;58.392;15.656;2023-01-24T07:26:53;1.20;99.90
35607;DHT22;21729;58.392;15.656;2023-01-24T07:29:21;1.20;99.90
35607;DHT22;21729;58.392;15.656;2023-01-24T07:31:49;1.20;99.90
35607;DHT22;21729;58.392;15.656;2023-01-24T07:34:17;1.20;99.90
35607;DHT22;21729;58.392;15.656;2023-01-24T07:36:45;1.20;99.90
35607;DHT22;21729;58.392;15.656;2023-01-24T07:39:14;1.20;99.90
35607;DHT22;21729;58.392;15.656;2023-01-24T07:41:41;1.20;99.90
35607;DHT22;21729;58.392;15.656;2023-01-24T07:44:09;1.20;99.90
35607;DHT22;21729;58.392;15.656;2023-01-24T07:46:37;1.20;99.90
35607;DHT22;21729;58.392;15.656;2023-01-24T07:49:04;1.20;99.90
35607;DHT22;21729;58.392;15.656;2023-01-24T07:51:31;1.20;99.90
35607;DHT22;21729;58.392;15.656;2023-01-24T07:53:58;1.20;99.90
35607;DHT22;21729;58.392;15.656;2023-01-24T07:56:27;1.30;99.90
35607;DHT22;21729;58.392;15.656;2023-01-24T07:58:54;1.20;99.90
35607;DHT22;21729;58.392;15.656;2023-01-24T08:01:23;1.30;99.90
35607;DHT22;21729;58.392;15.656;2023-01-24T08:03:50;1.30;99.90
35607;DHT22;21729;58.392;15.656;2023-01-24T08:06:20;1.30;99.90
35607;DHT22;21729;58.392;15.656;2023-01-24T08:08:47;1.30;99.90
35607;DHT22;21729;58.392;15.656;2023-01-24T08:11:14;1.40;99.90
35607;DHT22;21729;58.392;15.656;2023-01-24T08:13:44;1.40;99.90
35607;DHT22;21729;58.392;15.656;2023-01-24T08:16:12;1.40;99.90
35607;DHT22;21729;58.392;15.656;2023-01-24T08:18:40;1.40;99.90
35607;DHT22;21729;58.392;15.656;2023-01-24T08:21:07;1.40;99.90
35607;DHT22;21729;58.392;15.656;2023-01-24T08:23:35;1.50;99.90
35607;DHT22;21729;58.392;15.656;2023-01-24T08:26:03;1.50;99.90
35607;DHT22;21729;58.392;15.656;2023-01-24T08:28:31;1.50;99.90
35607;DHT22;21729;58.392;15.656;2023-01-24T08:31:00;1.50;99.90
35607;DHT22;21729;58.392;15.656;2023-01-24T08:33:27;1.60;99.90
35607;DHT22;21729;58.392;15.656;2023-01-24T08:35:54;1.60;99.90
35607;DHT22;21729;58.392;15.656;2023-01-24T08:38:21;1.60;99.90
35607;DHT22;21729;58.392;15.656;2023-01-24T08:40:48;1.60;99.90
35607;DHT22;21729;58.392;15.656;2023-01-24T08:43:15;1.60;99.90
35607;DHT22;21729;58.392;15.656;2023-01-24T08:45:42;1.60;99.90
35607;DHT22;21729;58.392;15.656;2023-01-24T08:48:11;1.70;99.90
35607;DHT22;21729;58.392;15.656;2023-01-24T08:50:38;1.70;99.90
35607;DHT22;21729;58.392;15.656;2023-01-24T08:53:05;1.70;99.90
35607;DHT22;21729;58.392;15.656;2023-01-24T08:55:32;1.70;99.90
35607;DHT22;21729;58.392;15.656;2023-01-24T08:58:00;1.70;99.90
35607;DHT22;21729;58.392;15.656;2023-01-24T09:00:27;1.70;99.90
35607;DHT22;21729;58.392;15.656;2023-01-24T09:02:54;1.70;99.90
35607;DHT22;21729;58.392;15.656;2023-01-24T09:05:25;1.70;99.90
35607;DHT22;21729;58.392;15.656;2023-01-24T09:07:52;1.80;99.90
35607;DHT22;21729;58.392;15.656;2023-01-24T09:10:19;1.80;1.00
35607;DHT22;21729;58.392;15.656;2023-01-24T09:12:46;1.80;99.90
35607;DHT22;21729;58.392;15.656;2023-01-24T09:15:14;1.90;1.00
35607;DHT22;21729;58.392;15.656;2023-01-24T09:17:41;1.90;1.00
35607;DHT22;21729;58.392;15.656;2023-01-24T09:20:09;1.90;1.00
35607;DHT22;21729;58.392;15.656;2023-01-24T09:22:38;2.00;1.00
35607;DHT22;21729;58.392;15.656;2023-01-24T09:25:06;2.00;1.00
35607;DHT22;21729;58.392;15.656;2023-01-24T09:27:33;2.00;1.00
35607;DHT22;21729;58.392;15.656;2023-01-24T09:30:01;2.00;1.00
35607;DHT22;21729;58.392;15.656;2023-01-24T09:32:28;2.10;1.00
35607;DHT22;21729;58.392;15.656;2023-01-24T09:34:55;2.10;1.00
35607;DHT22;21729;58.392;15.656;2023-01-24T09:37:23;2.10;1.00
35607;DHT22;21729;58.392;15.656;2023-01-24T09:39:51;2.10;1.00
35607;DHT22;21729;58.392;15.656;2023-01-24T09:42:27;2.10;1.00
35607;DHT22;21729;58.392;15.656;2023-01-24T09:45:07;2.10;1.00
35607;DHT22;21729;58.392;15.656;2023-01-24T09:47:43;2.20;1.00
35607;DHT22;21729;58.392;15.656;2023-01-24T09:50:16;2.10;1.00
35607;DHT22;21729;58.392;15.656;2023-01-24T09:52:46;2.40;1.00
35607;DHT22;21729;58.392;15.656;2023-01-24T09:55:20;2.20;1.00
35607;DHT22;21729;58.392;15.656;2023-01-24T09:57:54;2.20;1.00
35607;DHT22;21729;58.392;15.656;2023-01-24T10:00:25;2.20;1.00
35607;DHT22;21729;58.392;15.656;2023-01-24T10:02:54;2.20;1.00
35607;DHT22;21729;58.392;15.656;2023-01-24T10:05:25;2.20;1.00
35607;DHT22;21729;58.392;15.656;2023-01-24T10:08:05;2.30;1.00
35607;DHT22;21729;58.392;15.656;2023-01-24T10:10:47;2.30;1.00
35607;DHT22;21729;58.392;15.656;2023-01-24T10:17:04;2.40;1.00
35607;DHT22;21729;58.392;15.656;2023-01-24T10:19:50;2.50;1.00
35607;DHT22;21729;58.392;15.656;2023-01-24T10:22:33;2.50;1.00
35607;DHT22;21729;58.392;15.656;2023-01-24T10:25:09;2.60;1.00
35607;DHT22;21729;58.392;15.656;2023-01-24T10:27:44;2.60;1.00
35607;DHT22;21729;58.392;15.656;2023-01-24T10:30:15;2.60;1.00
35607;DHT22;21729;58.392;15.656;2023-01-24T10:32:45;2.60;1.00
35607;DHT22;21729;58.392;15.656;2023-01-24T10:35:15;2.60;1.00
35607;DHT22;21729;58.392;15.656;2023-01-24T10:37:47;2.60;1.00
35607;DHT22;21729;58.392;15.656;2023-01-24T10:40:20;2.60;1.00
35607;DHT22;21729;58.392;15.656;2023-01-24T10:42:49;2.60;1.00
35607;DHT22;21729;58.392;15.656;2023-01-24T10:45:31;2.60;1.00
35607;DHT22;21729;58.392;15.656;2023-01-24T10:48:05;2.60;1.00
35607;DHT22;21729;58.392;15.656;2023-01-24T10:50:35;2.60;1.00
35607;DHT22;21729;58.392;15.656;2023-01-24T10:53:22;2.60;1.00
35607;DHT22;21729;58.392;15.656;2023-01-24T10:55:57;2.70;1.00
35607;DHT22;21729;58.392;15.656;2023-01-24T10:58:27;2.60;1.00
35607;DHT22;21729;58.392;15.656;2023-01-24T11:00:56;2.60;1.00
35607;DHT22;21729;58.392;15.656;2023-01-24T11:03:27;2.60;1.00
35607;DHT22;21729;58.392;15.656;2023-01-24T11:05:56;2.60;1.00
35607;DHT22;21729;58.392;15.656;2023-01-24T11:08:25;2.60;1.00
35607;DHT22;21729;58.392;15.656;2023-01-24T11:10:53;2.50;1.00
35607;DHT22;21729;58.392;15.656;2023-01-24T11:13:32;2.60;1.00
35607;DHT22;21729;58.392;15.656;2023-01-24T11:16:01;2.60;1.00
35607;DHT22;21729;58.392;15.656;2023-01-24T11:18:30;2.60;1.00
35607;DHT22;21729;58.392;15.656;2023-01-24T11:21:07;2.60;1.00
35607;DHT22;21729;58.392;15.656;2023-01-24T11:23:38;2.60;1.00
35607;DHT22;21729;58.392;15.656;2023-01-24T11:26:23;2.60;1.00
35607;DHT22;21729;58.392;15.656;2023-01-24T11:28:59;2.60;1.00
35607;DHT22;21729;58.392;15.656;2023-01-24T11:31:32;2.60;1.00
35607;DHT22;21729;58.392;15.656;2023-01-24T11:37:06;2.60;1.00
35607;DHT22;21729;58.392;15.656;2023-01-24T11:39:45;2.60;1.00
35607;DHT22;21729;58.392;15.656;2023-01-24T11:42:24;2.60;1.00
35607;DHT22;21729;58.392;15.656;2023-01-24T11:45:17;2.60;1.00
35607;DHT22;21729;58.392;15.656;2023-01-24T11:47:52;2.60;1.00
35607;DHT22;21729;58.392;15.656;2023-01-24T11:50:34;2.60;1.00
35607;DHT22;21729;58.392;15.656;2023-01-24T11:53:25;2.60;1.00
35607;DHT22;21729;58.392;15.656;2023-01-24T11:56:04;2.60;1.00
35607;DHT22;21729;58.392;15.656;2023-01-24T11:58:56;2.60;1.00
35607;DHT22;21729;58.392;15.656;2023-01-24T12:01:32;2.60;1.00
35607;DHT22;21729;58.392;15.656;2023-01-24T12:07:07;2.60;1.00
35607;DHT22;21729;58.392;15.656;2023-01-24T12:09:40;2.60;1.00
35607;DHT22;21729;58.392;15.656;2023-01-24T12:12:14;2.60;1.00
35607;DHT22;21729;58.392;15.656;2023-01-24T12:18:01;2.70;1.00
35607;DHT22;21729;58.392;15.656;2023-01-24T12:20:57;2.70;1.00
35607;DHT22;21729;58.392;15.656;2023-01-24T12:23:31;2.70;1.00
35607;DHT22;21729;58.392;15.656;2023-01-24T12:26:05;2.70;1.00
35607;DHT22;21729;58.392;15.656;2023-01-24T12:28:48;2.70;1.00
35607;DHT22;21729;58.392;15.656;2023-01-24T12:31:24;2.70;1.00
35607;DHT22;21729;58.392;15.656;2023-01-24T12:33:57;2.60;1.00
35607;DHT22;21729;58.392;15.656;2023-01-24T12:36:35;2.50;1.00
35607;DHT22;21729;58.392;15.656;2023-01-24T12:39:12;2.50;1.00
35607;DHT22;21729;58.392;15.656;2023-01-24T12:41:44;2.50;1.00
35607;DHT22;21729;58.392;15.656;2023-01-24T12:44:25;2.50;8.40
35607;DHT22;21729;58.392;15.656;2023-01-24T12:47:15;2.50;13.60
35607;DHT22;21729;58.392;15.656;2023-01-24T12:49:55;2.50;18.30
35607;DHT22;21729;58.392;15.656;2023-01-24T12:52:29;2.50;26.50
35607;DHT22;21729;58.392;15.656;2023-01-24T12:55:02;2.50;35.20
35607;DHT22;21729;58.392;15.656;2023-01-24T12:57:35;2.50;40.10
35607;DHT22;21729;58.392;15.656;2023-01-24T13:03:01;2.50;61.10
35607;DHT22;21729;58.392;15.656;2023-01-24T13:05:41;2.60;68.50
35607;DHT22;21729;58.392;15.656;2023-01-24T13:08:19;2.60;69.90
35607;DHT22;21729;58.392;15.656;2023-01-24T13:10:57;2.60;69.30
35607;DHT22;21729;58.392;15.656;2023-01-24T13:13:31;2.60;75.40
35607;DHT22;21729;58.392;15.656;2023-01-24T13:16:14;2.70;80.20
35607;DHT22;21729;58.392;15.656;2023-01-24T13:18:53;2.70;72.20
35607;DHT22;21729;58.392;15.656;2023-01-24T13:21:31;2.70;73.10
35607;DHT22;21729;58.392;15.656;2023-01-24T13:27:23;2.70;82.30
35607;DHT22;21729;58.392;15.656;2023-01-24T13:30:05;2.80;81.50
35607;DHT22;21729;58.392;15.656;2023-01-24T13:32:36;2.80;80.70
35607;DHT22;21729;58.392;15.656;2023-01-24T13:35:14;2.80;80.20
35607;DHT22;21729;58.392;15.656;2023-01-24T13:37:49;2.80;84.20
35607;DHT22;21729;58.392;15.656;2023-01-24T13:40:26;2.90;74.10
35607;DHT22;21729;58.392;15.656;2023-01-24T13:42:56;2.90;63.40
35607;DHT22;21729;58.392;15.656;2023-01-24T13:45:48;2.90;57.50
35607;DHT22;21729;58.392;15.656;2023-01-24T13:48:47;2.90;56.60
35607;DHT22;21729;58.392;15.656;2023-01-24T13:51:34;2.90;58.80
35607;DHT22;21729;58.392;15.656;2023-01-24T13:54:04;2.90;59.70
35607;DHT22;21729;58.392;15.656;2023-01-24T13:56:32;2.90;66.90
35607;DHT22;21729;58.392;15.656;2023-01-24T13:59:19;2.90;52.70
35607;DHT22;21729;58.392;15.656;2023-01-24T14:01:46;2.90;61.50
35607;DHT22;21729;58.392;15.656;2023-01-24T14:04:14;2.90;68.40
35607;DHT22;21729;58.392;15.656;2023-01-24T14:06:43;2.90;76.80
35607;DHT22;21729;58.392;15.656;2023-01-24T14:09:19;3.00;78.20
35607;DHT22;21729;58.392;15.656;2023-01-24T14:11:57;3.00;79.20
35607;DHT22;21729;58.392;15.656;2023-01-24T14:15:00;3.00;77.20
35607;DHT22;21729;58.392;15.656;2023-01-24T14:17:45;3.00;71.90
35607;DHT22;21729;58.392;15.656;2023-01-24T14:20:36;3.00;75.20
35607;DHT22;21729;58.392;15.656;2023-01-24T14:23:13;3.00;86.50
35607;DHT22;21729;58.392;15.656;2023-01-24T14:25:48;3.00;89.30
35607;DHT22;21729;58.392;15.656;2023-01-24T14:28:24;3.00;99.90
35607;DHT22;21729;58.392;15.656;2023-01-24T14:30:56;3.00;96.80
35607;DHT22;21729;58.392;15.656;2023-01-24T14:33:39;3.00;99.90
35607;DHT22;21729;58.392;15.656;2023-01-24T14:36:19;2.90;99.90
35607;DHT22;21729;58.392;15.656;2023-01-24T14:38:47;3.00;99.90
35607;DHT22;21729;58.392;15.656;2023-01-24T14:41:20;3.00;99.90
35607;DHT22;21729;58.392;15.656;2023-01-24T14:43:49;3.00;99.90
35607;DHT22;21729;58.392;15.656;2023-01-24T14:46:20;3.00;99.90
35607;DHT22;21729;58.392;15.656;2023-01-24T14:48:48;3.00;99.90
35607;DHT22;21729;58.392;15.656;2023-01-24T14:51:17;3.00;99.90
35607;DHT22;21729;58.392;15.656;2023-01-24T14:53:49;3.10;99.90
35607;DHT22;21729;58.392;15.656;2023-01-24T14:56:18;3.10;99.90
35607;DHT22;21729;58.392;15.656;2023-01-24T14:58:46;3.10;99.90
35607;DHT22;21729;58.392;15.656;2023-01-24T15:01:26;3.10;99.90
35607;DHT22;21729;58.392;15.656;2023-01-24T15:03:54;3.10;99.90
35607;DHT22;21729;58.392;15.656;2023-01-24T15:06:23;3.10;99.90
35607;DHT22;21729;58.392;15.656;2023-01-24T15:08:54;3.10;99.90
35607;DHT22;21729;58.392;15.656;2023-01-24T15:11:26;3.20;99.90
35607;DHT22;21729;58.392;15.656;2023-01-24T15:13:56;3.20;99.90
35607;DHT22;21729;58.392;15.656;2023-01-24T15:16:34;3.20;99.90
35607;DHT22;21729;58.392;15.656;2023-01-24T15:19:03;3.20;99.90
35607;DHT22;21729;58.392;15.656;2023-01-24T15:21:34;3.20;99.90
35607;DHT22;21729;58.392;15.656;2023-01-24T15:24:04;3.20;99.90
35607;DHT22;21729;58.392;15.656;2023-01-24T15:26:51;3.20;99.90
35607;DHT22;21729;58.392;15.656;2023-01-24T15:29:45;3.30;99.90
35607;DHT22;21729;58.392;15.656;2023-01-24T15:32:38;3.20;99.90
35607;DHT22;21729;58.392;15.656;2023-01-24T15:35:15;3.20;97.20
35607;DHT22;21729;58.392;15.656;2023-01-24T15:37:45;3.20;98.70
35607;DHT22;21729;58.392;15.656;2023-01-24T15:40:18;3.20;99.90
35607;DHT22;21729;58.392;15.656;2023-01-24T15:42:47;3.20;99.30
35607;DHT22;21729;58.392;15.656;2023-01-24T15:45:36;3.20;96.50
35607;DHT22;21729;58.392;15.656;2023-01-24T15:48:22;3.20;99.90
35607;DHT22;21729;58.392;15.656;2023-01-24T15:50:51;3.20;96.50
35607;DHT22;21729;58.392;15.656;2023-01-24T15:53:37;3.20;90.00
35607;DHT22;21729;58.392;15.656;2023-01-24T15:56:08;3.20;89.00
35607;DHT22;21729;58.392;15.656;2023-01-24T15:58:38;3.30;90.60
35607;DHT22;21729;58.392;15.656;2023-01-24T16:01:05;3.30;88.60
35607;DHT22;21729;58.392;15.656;2023-01-24T16:03:32;3.30;73.80
35607;DHT22;21729;58.392;15.656;2023-01-24T16:05:59;3.30;73.30
35607;DHT22;21729;58.392;15.656;2023-01-24T16:08:26;3.30;77.80
35607;DHT22;21729;58.392;15.656;2023-01-24T16:10:54;3.30;76.20
35607;DHT22;21729;58.392;15.656;2023-01-24T16:13:27;3.20;75.50
35607;DHT22;21729;58.392;15.656;2023-01-24T16:15:58;3.30;86.50
35607;DHT22;21729;58.392;15.656;2023-01-24T16:18:26;3.30;93.00